Ontonagon, MI

10:20 PM EDT on May 28, 2015 (GMT -0400)
Kings Land O'Lakes | | Change Station
CLOSE
Current Station
Airport
Location: Land O' Lakes,
Elevation: 1706 ft
Nearby Weather Stations

Elev 1706 ft 46.15 °N, 89.21 °W | Updated 25 minutes ago

Partly Cloudy
Partly Cloudy
72 °F
Feels Like 72 °F
N
6
Wind Variable Wind from South

Today
High -- | Low -- °F
--% Chance of Precip.
Yesterday
High -- | Low -- °F
Precip. -- in
6:09 AM 9:40 PM
Waxing Gibbous, 80% visible
Pressure 30.02 in
Visibility 10.0 miles
Clouds Scattered Clouds 7000 ft
Dew Point 51 °F
Humidity 47%
Rainfall 0.00 in
Snow Depth Not available.
UV 0 out of 12
Pollen 8.40 out of 12
Air Quality Not available.
Flu Activity Sporadic
METAR KLNL 290155Z AUTO 18005KT 10SM SCT070 23/11 A3002 RMK AO2 T02250106

More Conditions Fewer Conditions

Pressure 30.02 in
Visibility 10.0 miles
Clouds Scattered Clouds 7000 ft
Dew Point 51 °F
Humidity 47%
Rainfall 0.00 in
Snow Depth Not available.
UV 0 out of 12
Pollen 8.40 out of 12
Air Quality Not available.
Flu Activity Sporadic
METAR KLNL 290155Z AUTO 18005KT 10SM SCT070 23/11 A3002 RMK AO2 T02250106

More Conditions Fewer Conditions

10-Day Weather Forecast

Almanac

Astronomy

May. 28, 2015 Rise Set
Actual Time
Civil Twilight
Nautical Twilight
Astronomical Twilight
Moon
Length of Visible Light
Length of Day
Tomorrow will be .
, % of the Moon is Illuminated

Today's Extremes

State Highs State Lows

Community

WunderPhotos

Upload Photos

1,825,137 photos uploaded!

WunderBlogs® & News

Nearby

Air Quality

  Air Quality AQ Index Pollutant
Not available.

Snow Depth

Station Depth Elevation

Earthquake Activity

City Distance Mag. Time & Date
Minimum magnitude displayed is 2.5.

Coastal Water Temperatures

Place Temperature

Stations

Nearby Weather Stations

Station Location Temp. Windchill Dew Point Humidity Wind Precip. Elev Updated Type